Aviation Digital Data Service (ADDS)

Output produced by METARs form (0626 UTC 21 August 2017)
found at http://aviationweather.gov/adds/metars/
 
KBHB 210536Z 2106/2206 22004KT P6SM SKC 
     FM211700 21011KT P6SM SKC